Time;durP1;ratioP1;P1;durP2;ratioP2;P2;SDS_P1;SDS_P2;PMS_P1;PMS_P2;Temp;Humidity;BMP_temperature;BMP_pressure;BME280_temperature;BME280_humidity;BME280_pressure;Samples;Min_cycle;Max_cycle;Signal;HPM_P1;HPM_P2
2021/09/02 00:00:17;;;;;;;13.82;8.13;;;12.90;99.90;;;;;;5041966;28;20481;-48
2021/09/02 00:02:43;;;;;;;11.02;7.75;;;12.90;99.90;;;;;;5042717;28;20064;-47
2021/09/02 00:05:09;;;;;;;11.65;8.00;;;12.90;99.90;;;;;;5039272;28;20021;-49
2021/09/02 00:07:34;;;;;;;12.32;8.25;;;12.90;99.90;;;;;;5042612;28;20364;-49
2021/09/02 00:10:00;;;;;;;16.83;8.50;;;12.80;99.90;;;;;;5045216;28;20131;-49
2021/09/02 00:12:26;;;;;;;15.75;8.18;;;12.80;99.90;;;;;;5034796;28;20025;-47
2021/09/02 00:14:52;;;;;;;11.80;8.13;;;12.80;99.90;;;;;;5045840;28;20099;-46
2021/09/02 00:17:17;;;;;;;14.05;8.27;;;12.80;99.90;;;;;;5049402;28;20100;-46
2021/09/02 00:19:43;;;;;;;11.50;7.85;;;12.70;99.90;;;;;;5046681;28;20029;-47
2021/09/02 00:22:08;;;;;;;12.60;8.32;;;12.70;99.90;;;;;;5049442;28;20103;-46
2021/09/02 00:24:34;;;;;;;12.65;8.30;;;12.70;99.90;;;;;;5045520;28;20261;-46
2021/09/02 00:27:00;;;;;;;14.88;10.23;;;12.70;99.90;;;;;;5048073;28;20083;-47
2021/09/02 00:29:26;;;;;;;14.48;9.50;;;12.60;99.90;;;;;;5041385;28;20024;-46
2021/09/02 00:31:51;;;;;;;11.80;9.23;;;12.70;99.90;;;;;;5045319;28;20403;-50
2021/09/02 00:34:17;;;;;;;16.08;10.65;;;12.60;99.90;;;;;;5041634;28;20382;-51
2021/09/02 00:36:43;;;;;;;17.58;9.90;;;12.60;99.90;;;;;;5045190;28;20620;-46
2021/09/02 00:39:08;;;;;;;13.45;9.75;;;12.60;99.90;;;;;;5048453;28;20094;-49
2021/09/02 00:41:34;;;;;;;14.93;10.55;;;12.60;99.90;;;;;;5044118;28;20021;-50
2021/09/02 00:44:00;;;;;;;24.15;11.68;;;12.60;99.90;;;;;;5041264;28;20084;-49
2021/09/02 00:46:25;;;;;;;14.45;10.10;;;12.60;99.90;;;;;;5035054;28;20017;-46
2021/09/02 00:48:52;;;;;;;12.73;9.75;;;12.50;99.90;;;;;;5040959;28;20021;-46
2021/09/02 00:51:22;;;;;;;15.65;11.18;;;12.50;99.90;;;;;;5048958;28;20040;-47
2021/09/02 00:53:49;;;;;;;15.25;10.82;;;12.50;99.90;;;;;;5044987;28;20514;-46
2021/09/02 00:56:15;;;;;;;12.98;10.25;;;12.50;99.90;;;;;;5047433;28;20132;-48
2021/09/02 00:58:42;;;;;;;10.82;8.88;;;12.50;99.90;;;;;;5041916;28;20061;-47
2021/09/02 01:01:09;;;;;;;11.20;9.00;;;12.50;99.90;;;;;;5043995;28;20060;-45
2021/09/02 01:03:36;;;;;;;15.25;8.93;;;12.50;99.90;;;;;;5045219;28;20187;-51
2021/09/02 01:06:02;;;;;;;12.32;9.73;;;12.50;99.90;;;;;;5045321;28;20028;-47
2021/09/02 01:08:29;;;;;;;13.77;10.65;;;12.40;99.90;;;;;;5046714;28;20472;-46
2021/09/02 01:10:54;;;;;;;9.90;8.45;;;12.40;99.90;;;;;;5044269;28;20487;-51
2021/09/02 01:13:20;;;;;;;12.40;10.05;;;12.40;99.90;;;;;;5042267;28;20036;-46
2021/09/02 01:15:46;;;;;;;9.75;8.55;;;12.40;99.90;;;;;;5049221;28;20395;-47
2021/09/02 01:18:12;;;;;;;12.88;9.98;;;12.40;99.90;;;;;;5044341;28;20085;-51
2021/09/02 01:20:38;;;;;;;13.65;10.00;;;12.30;99.90;;;;;;5042658;28;20597;-45
2021/09/02 01:23:05;;;;;;;12.23;9.15;;;12.30;99.90;;;;;;5044129;28;20027;-46
2021/09/02 01:25:34;;;;;;;10.13;8.20;;;12.30;99.90;;;;;;5046211;28;20021;-49
2021/09/02 01:28:02;;;;;;;11.90;9.63;;;12.30;99.90;;;;;;5042257;28;20021;-49
2021/09/02 01:30:29;;;;;;;11.25;9.23;;;12.30;99.90;;;;;;5044766;28;20025;-47
2021/09/02 01:32:55;;;;;;;14.60;9.20;;;12.20;99.90;;;;;;5048282;28;20025;-47
2021/09/02 01:35:22;;;;;;;11.27;8.68;;;12.20;99.90;;;;;;5032748;28;20024;-45
2021/09/02 01:37:56;;;;;;;13.07;10.02;;;12.20;99.90;;;;;;5045612;28;20495;-48
2021/09/02 01:40:29;;;;;;;11.20;9.57;;;12.20;99.90;;;;;;5032892;28;20127;-46
2021/09/02 01:42:55;;;;;;;10.50;9.25;;;12.20;99.90;;;;;;5046016;28;20614;-46
2021/09/02 01:45:21;;;;;;;14.35;9.00;;;12.10;99.90;;;;;;5032438;28;20021;-46
2021/09/02 01:47:47;;;;;;;15.10;9.93;;;12.10;99.90;;;;;;5045573;28;20015;-49
2021/09/02 01:50:21;;;;;;;11.00;8.77;;;12.10;99.90;;;;;;5047121;28;20025;-48
2021/09/02 01:52:48;;;;;;;12.30;9.50;;;12.10;99.90;;;;;;5043711;28;20020;-47
2021/09/02 01:55:13;;;;;;;10.30;8.77;;;12.10;99.90;;;;;;5046365;28;20577;-55
2021/09/02 01:57:40;;;;;;;12.38;9.43;;;12.10;99.90;;;;;;5042857;28;20028;-46
2021/09/02 02:00:08;;;;;;;10.63;8.73;;;12.10;99.90;;;;;;5046192;28;20191;-53
2021/09/02 02:02:33;;;;;;;13.40;9.98;;;12.10;99.90;;;;;;5046974;28;20615;-46
2021/09/02 02:04:59;;;;;;;14.32;10.20;;;12.10;99.90;;;;;;5044365;28;20038;-47
2021/09/02 02:07:25;;;;;;;11.93;8.63;;;12.10;99.90;;;;;;5048103;28;20021;-48
2021/09/02 02:09:51;;;;;;;11.45;9.40;;;12.00;99.90;;;;;;5044271;28;20017;-48
2021/09/02 02:12:17;;;;;;;10.88;9.02;;;12.00;99.90;;;;;;5046151;28;20411;-46
2021/09/02 02:14:42;;;;;;;18.00;10.70;;;12.00;99.90;;;;;;5041177;28;20025;-49
2021/09/02 02:17:08;;;;;;;14.07;9.65;;;12.00;99.90;;;;;;5045874;28;20028;-48
2021/09/02 02:19:33;;;;;;;16.58;10.23;;;12.00;99.90;;;;;;5042645;28;20111;-49
2021/09/02 02:22:00;;;;;;;11.63;9.35;;;12.00;99.90;;;;;;5047601;28;20025;-47
2021/09/02 02:24:26;;;;;;;9.68;8.35;;;12.00;99.90;;;;;;5041084;28;20602;-49
2021/09/02 02:26:52;;;;;;;15.93;10.52;;;11.90;99.90;;;;;;5048174;28;20017;-46
2021/09/02 02:29:17;;;;;;;13.50;10.20;;;11.90;99.90;;;;;;5042546;28;20655;-47
2021/09/02 02:31:43;;;;;;;14.13;9.75;;;12.00;99.90;;;;;;5045748;28;20028;-51
2021/09/02 02:34:08;;;;;;;12.60;9.57;;;12.00;99.90;;;;;;5045683;28;20033;-46
2021/09/02 02:36:34;;;;;;;13.82;10.35;;;12.00;99.90;;;;;;5042657;28;20041;-47
2021/09/02 02:39:00;;;;;;;13.30;9.90;;;12.00;99.90;;;;;;5047294;28;20547;-48
2021/09/02 02:41:25;;;;;;;14.88;9.45;;;12.00;99.90;;;;;;5040807;28;20040;-49
2021/09/02 02:43:51;;;;;;;13.98;9.48;;;12.00;99.90;;;;;;5046715;28;20102;-49
2021/09/02 02:46:17;;;;;;;14.98;10.07;;;12.00;99.90;;;;;;5044553;28;20014;-46
2021/09/02 02:48:42;;;;;;;12.52;10.40;;;12.00;99.90;;;;;;5046343;28;20427;-47
2021/09/02 02:51:08;;;;;;;14.20;9.93;;;12.00;99.90;;;;;;5046040;28;20025;-48
2021/09/02 02:53:34;;;;;;;16.85;10.57;;;12.00;99.90;;;;;;5040766;28;20503;-49
2021/09/02 02:55:59;;;;;;;16.40;10.35;;;12.10;99.90;;;;;;5044114;28;20502;-49
2021/09/02 02:58:25;;;;;;;15.40;9.00;;;12.10;99.90;;;;;;5042927;28;20029;-45
2021/09/02 03:00:50;;;;;;;13.35;9.65;;;12.10;99.90;;;;;;5051286;28;20482;-48
2021/09/02 03:03:16;;;;;;;15.50;10.90;;;12.20;99.90;;;;;;5049291;28;20466;-48
2021/09/02 03:05:41;;;;;;;17.63;10.57;;;12.20;99.90;;;;;;5048720;28;20013;-46
2021/09/02 03:08:07;;;;;;;16.00;10.73;;;12.20;99.90;;;;;;5050089;28;20487;-49
2021/09/02 03:10:33;;;;;;;14.98;9.73;;;12.20;99.90;;;;;;5046952;28;20525;-49
2021/09/02 03:12:58;;;;;;;15.75;9.75;;;12.30;99.90;;;;;;5051060;28;20624;-51
2021/09/02 03:15:24;;;;;;;13.82;9.60;;;12.30;99.90;;;;;;5046524;28;20387;-46
2021/09/02 03:17:49;;;;;;;15.20;10.40;;;12.30;99.90;;;;;;5047219;28;20075;-51
2021/09/02 03:20:15;;;;;;;16.83;9.70;;;12.30;99.90;;;;;;5049889;28;20036;-47
2021/09/02 03:22:41;;;;;;;14.60;9.13;;;12.40;99.90;;;;;;5046343;28;20022;-46
2021/09/02 03:25:07;;;;;;;12.00;9.13;;;12.40;99.90;;;;;;5048649;28;20641;-49
2021/09/02 03:27:33;;;;;;;14.43;9.15;;;12.40;99.90;;;;;;5049987;28;20391;-48
2021/09/02 03:29:59;;;;;;;12.32;9.13;;;12.40;99.90;;;;;;5047463;28;20023;-47
2021/09/02 03:32:24;;;;;;;13.93;9.38;;;12.50;99.90;;;;;;5050695;28;20021;-54
2021/09/02 03:34:50;;;;;;;15.48;9.18;;;12.50;99.90;;;;;;5045343;28;20029;-46
2021/09/02 03:37:16;;;;;;;15.90;9.85;;;12.50;99.90;;;;;;5048204;28;20037;-47
2021/09/02 03:39:41;;;;;;;16.23;9.98;;;12.50;99.90;;;;;;5046108;28;20064;-49
2021/09/02 03:42:07;;;;;;;15.13;11.00;;;12.50;99.90;;;;;;5048839;28;20025;-49
2021/09/02 03:44:32;;;;;;;20.70;10.52;;;12.60;99.90;;;;;;5050982;28;20024;-48
2021/09/02 03:46:58;;;;;;;16.10;9.20;;;12.60;99.90;;;;;;5047239;28;20395;-48
2021/09/02 03:49:24;;;;;;;16.42;9.68;;;12.60;99.90;;;;;;5049925;28;20487;-52
2021/09/02 03:51:49;;;;;;;17.55;9.85;;;12.70;99.90;;;;;;5045148;28;20029;-48
2021/09/02 03:54:15;;;;;;;15.02;9.82;;;12.70;99.90;;;;;;5049354;28;20033;-46
2021/09/02 03:56:40;;;;;;;16.55;10.27;;;12.70;99.90;;;;;;5045687;28;20030;-48
2021/09/02 03:59:06;;;;;;;19.25;10.75;;;12.70;99.90;;;;;;5047776;28;20021;-47
2021/09/02 04:01:32;;;;;;;17.23;10.50;;;12.70;99.90;;;;;;5050339;28;20029;-51
2021/09/02 04:03:58;;;;;;;17.98;11.43;;;12.70;99.90;;;;;;5047786;28;20099;-51
2021/09/02 04:06:23;;;;;;;17.65;10.07;;;12.80;99.90;;;;;;5050080;28;20043;-46
2021/09/02 04:08:50;;;;;;;15.27;9.77;;;12.80;99.90;;;;;;5045829;28;20483;-46
2021/09/02 04:11:15;;;;;;;14.65;9.70;;;12.80;99.90;;;;;;5048663;28;20025;-51
2021/09/02 04:13:41;;;;;;;17.45;10.90;;;12.80;99.90;;;;;;5046093;28;20033;-48
2021/09/02 04:16:06;;;;;;;16.48;10.38;;;12.90;99.90;;;;;;5049975;28;20506;-49
2021/09/02 04:18:32;;;;;;;18.77;11.27;;;12.90;99.90;;;;;;5046728;28;20204;-51
2021/09/02 04:20:58;;;;;;;16.73;9.82;;;12.90;99.90;;;;;;5049073;28;20079;-48
2021/09/02 04:23:24;;;;;;;18.98;11.43;;;12.90;99.90;;;;;;5045455;28;20430;-49
2021/09/02 04:25:50;;;;;;;12.38;9.50;;;12.90;99.90;;;;;;5047554;28;20023;-50
2021/09/02 04:28:16;;;;;;;15.52;9.93;;;13.00;99.90;;;;;;5046535;28;20113;-47
2021/09/02 04:30:41;;;;;;;13.88;9.75;;;13.00;99.90;;;;;;5045552;28;20055;-52
2021/09/02 04:33:07;;;;;;;17.88;9.65;;;13.00;99.90;;;;;;5047948;28;20017;-52
2021/09/02 04:35:32;;;;;;;21.17;10.48;;;13.00;99.90;;;;;;5045140;28;20104;-46
2021/09/02 04:37:58;;;;;;;17.38;10.45;;;13.00;99.90;;;;;;5048217;28;20040;-48
2021/09/02 04:40:23;;;;;;;15.10;9.43;;;13.00;99.90;;;;;;5045446;28;20025;-49
2021/09/02 04:42:49;;;;;;;13.20;9.73;;;13.10;99.90;;;;;;5047689;28;20025;-51
2021/09/02 04:45:15;;;;;;;16.25;10.45;;;13.10;99.90;;;;;;5049680;28;20086;-49
2021/09/02 04:47:40;;;;;;;15.98;10.43;;;13.10;99.90;;;;;;5046808;28;20032;-51
2021/09/02 04:50:09;;;;;;;16.67;9.93;;;13.10;99.90;;;;;;5048693;28;20390;-52
2021/09/02 04:52:34;;;;;;;13.80;10.50;;;13.10;99.90;;;;;;5045840;28;20037;-51
2021/09/02 04:55:00;;;;;;;15.00;10.07;;;13.10;99.90;;;;;;5047387;28;20397;-48
2021/09/02 04:57:25;;;;;;;11.57;9.43;;;13.20;99.90;;;;;;5044324;28;20142;-50
2021/09/02 04:59:51;;;;;;;20.88;10.02;;;13.20;99.90;;;;;;5046791;28;20345;-49
2021/09/02 05:02:17;;;;;;;17.30;9.95;;;13.20;99.90;;;;;;5047984;28;20648;-47
2021/09/02 05:04:43;;;;;;;16.17;9.45;;;13.20;99.90;;;;;;5045695;28;21101;-48
2021/09/02 05:07:08;;;;;;;18.45;10.95;;;13.20;99.90;;;;;;5048265;28;20049;-51
2021/09/02 05:09:35;;;;;;;14.18;9.30;;;13.20;99.90;;;;;;5045471;28;20083;-53
2021/09/02 05:12:00;;;;;;;17.52;11.57;;;13.30;99.90;;;;;;5047630;28;20087;-49
2021/09/02 05:14:26;;;;;;;13.85;9.18;;;13.30;99.90;;;;;;5042555;28;20017;-54
2021/09/02 05:16:51;;;;;;;16.80;10.38;;;13.30;99.90;;;;;;5048662;28;20024;-49
2021/09/02 05:19:17;;;;;;;15.70;10.30;;;13.30;99.90;;;;;;5043713;28;20079;-51
2021/09/02 05:21:42;;;;;;;14.27;9.48;;;13.30;99.90;;;;;;5044662;28;20092;-52
2021/09/02 05:24:08;;;;;;;14.98;9.57;;;13.40;99.90;;;;;;5042314;28;20487;-53
2021/09/02 05:26:34;;;;;;;16.55;8.88;;;13.40;99.90;;;;;;5046376;28;20079;-49
2021/09/02 05:29:00;;;;;;;14.88;10.20;;;13.40;99.90;;;;;;5042414;28;20029;-47
2021/09/02 05:31:26;;;;;;;15.35;9.85;;;13.40;99.90;;;;;;5045634;28;20017;-49
2021/09/02 05:33:52;;;;;;;16.92;10.43;;;13.40;99.90;;;;;;5049291;28;20017;-49
2021/09/02 05:36:18;;;;;;;16.80;9.68;;;13.50;99.90;;;;;;5042937;28;20045;-47
2021/09/02 05:38:44;;;;;;;13.10;9.20;;;13.50;99.90;;;;;;5047371;28;20036;-47
2021/09/02 05:41:10;;;;;;;13.88;9.70;;;13.50;99.90;;;;;;5042092;28;20029;-48
2021/09/02 05:43:35;;;;;;;17.60;9.13;;;13.50;99.90;;;;;;5047486;28;20383;-50
2021/09/02 05:46:01;;;;;;;19.65;10.13;;;13.50;99.90;;;;;;5048110;28;20468;-51
2021/09/02 05:48:27;;;;;;;28.83;10.02;;;13.50;99.90;;;;;;5044589;28;20024;-51
2021/09/02 05:50:53;;;;;;;18.23;10.23;;;13.60;99.90;;;;;;5048658;28;20523;-52
2021/09/02 05:53:22;;;;;;;17.15;10.05;;;13.60;99.90;;;;;;5042669;28;20029;-49
2021/09/02 05:55:50;;;;;;;11.40;8.90;;;13.60;99.90;;;;;;5048832;28;20397;-49
2021/09/02 05:58:16;;;;;;;19.52;10.93;;;13.70;99.90;;;;;;5041175;28;20021;-47
2021/09/02 06:00:42;;;;;;;18.17;9.40;;;13.70;99.90;;;;;;5048091;28;20552;-52
2021/09/02 06:03:07;;;;;;;16.38;8.55;;;13.70;99.90;;;;;;5046954;28;20118;-51
2021/09/02 06:05:33;;;;;;;18.95;9.30;;;13.80;99.90;;;;;;5045765;28;20050;-49
2021/09/02 06:07:58;;;;;;;12.80;9.13;;;13.80;99.90;;;;;;5047518;28;20633;-49
2021/09/02 06:10:24;;;;;;;17.00;9.55;;;13.80;99.90;;;;;;5041844;28;20064;-47
2021/09/02 06:12:50;;;;;;;14.38;9.02;;;13.90;99.90;;;;;;5048990;28;20036;-48
2021/09/02 06:15:16;;;;;;;13.40;9.23;;;13.90;99.90;;;;;;5042715;28;20047;-53
2021/09/02 06:17:42;;;;;;;15.10;9.77;;;13.90;99.90;;;;;;5043910;28;20033;-51
2021/09/02 06:20:08;;;;;;;13.50;9.10;;;14.00;99.90;;;;;;5047044;28;20021;-48
2021/09/02 06:22:34;;;;;;;17.70;8.50;;;14.00;99.90;;;;;;5043282;28;20021;-49
2021/09/02 06:25:00;;;;;;;14.98;9.20;;;14.00;99.90;;;;;;5044118;28;20095;-53
2021/09/02 06:27:27;;;;;;;15.27;9.75;;;14.10;99.90;;;;;;5047404;28;20021;-49
2021/09/02 06:29:52;;;;;;;15.98;9.13;;;14.20;99.90;;;;;;5043258;28;20025;-51
2021/09/02 06:32:18;;;;;;;14.20;9.25;;;14.20;99.90;;;;;;5048121;28;20048;-49
2021/09/02 06:34:44;;;;;;;17.05;10.52;;;14.20;99.90;;;;;;5048022;28;20507;-47
2021/09/02 06:37:09;;;;;;;16.77;9.25;;;14.20;99.90;;;;;;5049192;28;20110;-47
2021/09/02 06:39:35;;;;;;;14.65;9.70;;;14.30;99.90;;;;;;5048031;28;20036;-47
2021/09/02 06:42:00;;;;;;;14.20;8.77;;;14.30;99.90;;;;;;5045680;28;20055;-50
2021/09/02 06:44:26;;;;;;;13.85;8.50;;;14.40;99.90;;;;;;5041229;28;20049;-47
2021/09/02 06:46:51;;;;;;;16.00;10.02;;;14.40;99.90;;;;;;5042692;28;20127;-47
2021/09/02 06:49:19;;;;;;;20.02;10.38;;;14.50;99.90;;;;;;5039720;28;20071;-49
2021/09/02 06:51:45;;;;;;;16.70;9.00;;;14.60;99.90;;;;;;5039165;28;20558;-51
2021/09/02 06:54:10;;;;;;;17.30;9.10;;;14.60;99.90;;;;;;5039899;28;20024;-47
2021/09/02 06:56:36;;;;;;;19.90;9.70;;;14.70;99.90;;;;;;5039712;28;20021;-47
2021/09/02 06:59:01;;;;;;;13.63;8.85;;;14.70;99.90;;;;;;5040726;28;20064;-45
2021/09/02 07:01:27;;;;;;;17.70;8.98;;;14.80;99.90;;;;;;5035477;28;20506;-52
2021/09/02 07:03:52;;;;;;;16.27;9.27;;;14.80;99.90;;;;;;5039479;28;20014;-47
2021/09/02 07:06:18;;;;;;;17.48;10.10;;;14.90;99.90;;;;;;5039820;28;20029;-54
2021/09/02 07:08:44;;;;;;;13.00;9.35;;;14.90;99.90;;;;;;5039961;28;20074;-47
2021/09/02 07:11:09;;;;;;;13.65;8.07;;;14.90;99.90;;;;;;5041388;28;20021;-52
2021/09/02 07:13:35;;;;;;;16.15;8.73;;;15.00;99.90;;;;;;5041081;28;20090;-47
2021/09/02 07:16:00;;;;;;;14.40;8.85;;;15.00;99.90;;;;;;5047945;28;20021;-45
2021/09/02 07:18:26;;;;;;;18.25;10.70;;;15.10;99.90;;;;;;5047506;28;20387;-48
2021/09/02 07:20:52;;;;;;;17.35;9.32;;;15.10;99.90;;;;;;5048441;28;20025;-49
2021/09/02 07:23:18;;;;;;;12.70;8.13;;;15.20;99.90;;;;;;5046416;28;20029;-48
2021/09/02 07:25:44;;;;;;;12.70;8.73;;;15.20;99.90;;;;;;5048440;28;20013;-49
2021/09/02 07:28:10;;;;;;;16.42;9.73;;;15.20;99.90;;;;;;5049028;28;20017;-48
2021/09/02 07:30:35;;;;;;;14.27;9.15;;;15.30;99.90;;;;;;5047719;28;20451;-47
2021/09/02 07:33:01;;;;;;;11.20;7.47;;;15.30;99.90;;;;;;5048820;28;20091;-48
2021/09/02 07:35:26;;;;;;;17.48;8.85;;;15.30;99.90;;;;;;5046754;28;20036;-46
2021/09/02 07:37:52;;;;;;;17.48;9.20;;;15.30;99.90;;;;;;5049289;28;20044;-50
2021/09/02 07:40:17;;;;;;;13.35;8.18;;;15.30;99.90;;;;;;5046240;28;20124;-47
2021/09/02 07:42:43;;;;;;;13.95;8.40;;;15.30;99.90;;;;;;5046712;28;20166;-48
2021/09/02 07:45:10;;;;;;;16.30;8.13;;;15.30;99.90;;;;;;5050145;28;20025;-48
2021/09/02 07:47:35;;;;;;;13.75;7.68;;;15.40;99.90;;;;;;5047780;28;20052;-47
2021/09/02 07:50:05;;;;;;;13.00;7.55;;;15.40;99.90;;;;;;5050187;28;20044;-48
2021/09/02 07:52:34;;;;;;;15.07;8.52;;;15.40;99.90;;;;;;5046282;28;20364;-54
2021/09/02 07:55:00;;;;;;;17.17;8.30;;;15.30;99.90;;;;;;5048244;28;20032;-47
2021/09/02 07:57:25;;;;;;;14.27;7.65;;;15.40;99.90;;;;;;5045660;28;20028;-51
2021/09/02 07:59:51;;;;;;;11.95;7.53;;;15.40;99.90;;;;;;5048447;28;20116;-53
2021/09/02 08:02:16;;;;;;;13.82;7.57;;;15.50;99.90;;;;;;5049811;28;20540;-47
2021/09/02 08:04:42;;;;;;;13.32;7.72;;;15.60;99.90;;;;;;5046801;28;20686;-51
2021/09/02 08:07:08;;;;;;;15.50;8.45;;;15.70;99.90;;;;;;5048932;28;20767;-47
2021/09/02 08:09:33;;;;;;;11.15;7.20;;;15.70;99.90;;;;;;5046208;28;20033;-51
2021/09/02 08:11:59;;;;;;;14.10;8.15;;;15.80;99.90;;;;;;5048816;28;20044;-50
2021/09/02 08:14:24;;;;;;;9.50;6.68;;;15.80;99.90;;;;;;5045588;28;20039;-51
2021/09/02 08:16:50;;;;;;;15.48;7.57;;;15.80;99.90;;;;;;5049885;28;20072;-48
2021/09/02 08:19:16;;;;;;;12.43;7.57;;;15.80;99.90;;;;;;5044440;28;20507;-48
2021/09/02 08:21:41;;;;;;;15.43;7.05;;;15.80;99.90;;;;;;5050729;28;20108;-50
2021/09/02 08:24:08;;;;;;;16.35;7.43;;;15.80;99.90;;;;;;5044067;28;20526;-47
2021/09/02 08:26:34;;;;;;;15.98;6.38;;;15.80;99.90;;;;;;5047981;28;20027;-48
2021/09/02 08:29:01;;;;;;;14.77;6.82;;;15.90;99.90;;;;;;5047339;28;20069;-48
2021/09/02 08:31:28;;;;;;;12.43;6.55;;;15.90;99.90;;;;;;5046796;28;20017;-48
2021/09/02 08:33:53;;;;;;;14.02;6.10;;;15.90;99.90;;;;;;5050085;28;20021;-46
2021/09/02 08:36:19;;;;;;;13.63;6.97;;;15.80;99.90;;;;;;5042525;28;20033;-48
2021/09/02 08:38:47;;;;;;;8.13;5.32;;;15.80;99.90;;;;;;5049917;28;20033;-47
2021/09/02 08:41:15;;;;;;;13.02;6.00;;;15.90;99.90;;;;;;5042280;28;20017;-51
2021/09/02 08:43:42;;;;;;;10.95;6.07;;;15.90;99.90;;;;;;5039360;28;20029;-51
2021/09/02 08:46:08;;;;;;;11.70;4.97;;;15.80;99.90;;;;;;5047783;28;20009;-50
2021/09/02 08:48:37;;;;;;;12.75;5.60;;;15.80;99.90;;;;;;5047344;28;20025;-49
2021/09/02 08:51:04;;;;;;;8.85;4.38;;;15.90;99.90;;;;;;5048678;28;20024;-51
2021/09/02 08:53:30;;;;;;;7.45;5.13;;;16.00;99.90;;;;;;5045587;28;20025;-45
2021/09/02 08:55:56;;;;;;;6.45;4.60;;;16.10;99.90;;;;;;5048626;28;20040;-47
2021/09/02 08:58:22;;;;;;;10.00;5.60;;;16.20;99.90;;;;;;5040373;28;20025;-46
2021/09/02 09:00:48;;;;;;;6.90;5.70;;;16.20;99.90;;;;;;5049663;28;20067;-49
2021/09/02 09:03:17;;;;;;;10.18;5.60;;;16.20;99.90;;;;;;5047020;28;20372;-50
2021/09/02 09:05:43;;;;;;;9.90;4.57;;;16.20;99.90;;;;;;5048303;28;20502;-49
2021/09/02 09:08:11;;;;;;;10.75;5.78;;;16.30;99.90;;;;;;5046861;28;20021;-45
2021/09/02 09:10:39;;;;;;;9.15;5.03;;;16.30;99.90;;;;;;5045421;28;20092;-50
2021/09/02 09:13:08;;;;;;;9.50;5.10;;;16.20;99.90;;;;;;5048076;28;20032;-48
2021/09/02 09:15:39;;;;;;;10.50;5.57;;;16.30;99.90;;;;;;5046017;28;20099;-51
2021/09/02 09:18:20;;;;;;;11.18;6.20;;;16.30;99.90;;;;;;5047650;28;20649;-47
2021/09/02 09:21:03;;;;;;;10.13;5.90;;;16.40;99.90;;;;;;5043743;28;20028;-53
2021/09/02 09:24:02;;;;;;;8.73;5.00;;;16.40;99.90;;;;;;5044276;28;20032;-47
2021/09/02 09:26:29;;;;;;;11.05;5.68;;;16.40;99.90;;;;;;5048994;28;20017;-46
2021/09/02 09:29:03;;;;;;;9.95;5.57;;;16.30;99.90;;;;;;5045236;28;20025;-51
2021/09/02 09:31:34;;;;;;;12.15;6.13;;;16.30;99.90;;;;;;5044650;28;20116;-48
2021/09/02 09:34:02;;;;;;;9.48;5.68;;;16.20;99.90;;;;;;5048335;28;20032;-53
2021/09/02 09:36:31;;;;;;;13.10;5.20;;;16.10;99.90;;;;;;5043445;28;20036;-50
2021/09/02 09:39:09;;;;;;;11.65;5.15;;;16.20;99.90;;;;;;5048616;28;20553;-48
2021/09/02 09:41:37;;;;;;;12.68;5.30;;;16.20;99.90;;;;;;5025437;28;20041;-50
2021/09/02 09:44:23;;;;;;;10.60;5.55;;;16.20;99.90;;;;;;5048980;28;20044;-49
2021/09/02 09:47:21;;;;;;;12.32;4.85;;;16.20;99.90;;;;;;5043564;28;20024;-47
2021/09/02 09:49:57;;;;;;;11.10;5.00;;;16.20;99.90;;;;;;5039461;28;20021;-47
2021/09/02 09:52:27;;;;;;;8.68;4.85;;;16.30;99.90;;;;;;5033572;28;20024;-49
2021/09/02 09:55:17;;;;;;;9.52;5.47;;;16.40;99.90;;;;;;5046780;28;20029;-51
2021/09/02 09:57:45;;;;;;;11.43;5.80;;;16.40;99.90;;;;;;5038367;28;20032;-49
2021/09/02 10:00:18;;;;;;;10.35;4.32;;;16.40;99.90;;;;;;5041941;28;20115;-49
2021/09/02 10:02:48;;;;;;;10.27;5.53;;;16.50;99.90;;;;;;5044237;28;20391;-49
2021/09/02 10:05:16;;;;;;;12.00;5.63;;;16.40;99.90;;;;;;5043484;28;20032;-48
2021/09/02 10:07:45;;;;;;;11.65;5.22;;;16.40;99.90;;;;;;5047432;28;20025;-48
2021/09/02 10:10:15;;;;;;;8.18;4.43;;;16.40;99.90;;;;;;5041137;28;20014;-50
2021/09/02 10:12:43;;;;;;;9.32;5.07;;;16.40;99.90;;;;;;5037533;28;20376;-52
2021/09/02 10:15:14;;;;;;;8.43;5.35;;;16.40;99.90;;;;;;5044356;28;20021;-52
2021/09/02 10:17:41;;;;;;;10.18;5.00;;;16.40;99.90;;;;;;5044374;28;20028;-48
2021/09/02 10:20:22;;;;;;;8.27;4.53;;;16.50;99.90;;;;;;5036147;28;20030;-51
2021/09/02 10:22:49;;;;;;;11.63;5.78;;;16.60;99.90;;;;;;5032706;28;20399;-52
2021/09/02 10:25:33;;;;;;;9.73;5.85;;;16.70;99.90;;;;;;5039015;28;20032;-52
2021/09/02 10:28:00;;;;;;;8.05;5.65;;;16.70;99.90;;;;;;5026851;28;20060;-49
2021/09/02 10:30:27;;;;;;;8.52;6.00;;;16.70;99.90;;;;;;5041887;28;20036;-54
2021/09/02 10:32:54;;;;;;;10.82;7.38;;;16.70;99.90;;;;;;5026830;28;20021;-48
2021/09/02 10:35:19;;;;;;;14.85;7.93;;;16.80;99.90;;;;;;5042926;28;20571;-51
2021/09/02 10:37:45;;;;;;;10.95;7.70;;;16.80;99.90;;;;;;5033823;28;20091;-50
2021/09/02 10:40:16;;;;;;;9.80;7.80;;;16.70;99.90;;;;;;5038470;28;20021;-49
2021/09/02 10:42:58;;;;;;;16.17;8.27;;;16.70;99.90;;;;;;5037097;28;20017;-53
2021/09/02 10:45:33;;;;;;;14.38;8.40;;;16.80;99.90;;;;;;5025574;28;20021;-45
2021/09/02 10:48:07;;;;;;;9.40;7.07;;;16.60;99.90;;;;;;5037965;28;20037;-48
2021/09/02 10:50:42;;;;;;;10.95;7.55;;;16.70;99.90;;;;;;5027427;28;20025;-48
2021/09/02 10:53:17;;;;;;;10.85;7.47;;;16.80;99.90;;;;;;5040060;28;20075;-46
2021/09/02 10:55:57;;;;;;;14.15;8.02;;;16.90;99.90;;;;;;5032080;28;20056;-52
2021/09/02 10:58:41;;;;;;;15.95;8.90;;;17.00;99.90;;;;;;5032785;28;20033;-50
2021/09/02 11:01:26;;;;;;;13.13;8.63;;;17.00;99.90;;;;;;5032487;28;20022;-48
2021/09/02 11:03:55;;;;;;;12.52;9.07;;;17.00;99.90;;;;;;5037998;28;20014;-45
2021/09/02 11:06:20;;;;;;;12.63;7.97;;;16.80;99.90;;;;;;5026124;28;20025;-53
2021/09/02 11:08:46;;;;;;;12.85;8.57;;;16.80;99.90;;;;;;5039557;28;20542;-50
2021/09/02 11:11:15;;;;;;;10.82;8.88;;;16.90;99.90;;;;;;5037435;28;20026;-50
2021/09/02 11:13:43;;;;;;;10.10;8.10;;;17.00;99.90;;;;;;5030292;28;20032;-49
2021/09/02 11:16:34;;;;;;;12.60;8.75;;;17.10;99.90;;;;;;5045555;28;20418;-49
2021/09/02 11:18:59;;;;;;;11.98;7.55;;;17.20;99.90;;;;;;5045021;28;20025;-53
2021/09/02 11:21:34;;;;;;;12.82;7.97;;;17.30;99.90;;;;;;5050985;28;20033;-53
2021/09/02 11:24:04;;;;;;;13.57;8.52;;;17.40;99.90;;;;;;5045009;28;20078;-47
2021/09/02 11:26:37;;;;;;;11.75;7.97;;;17.40;99.90;;;;;;5049889;28;20029;-51
2021/09/02 11:29:03;;;;;;;13.00;8.07;;;17.50;99.90;;;;;;5048381;28;20096;-48
2021/09/02 11:31:30;;;;;;;10.60;7.88;;;17.50;99.90;;;;;;5048997;28;20108;-51
2021/09/02 11:33:56;;;;;;;8.77;7.60;;;17.50;99.90;;;;;;5051624;28;20028;-50
2021/09/02 11:36:21;;;;;;;11.63;7.50;;;17.60;99.90;;;;;;5045006;28;20045;-49
2021/09/02 11:38:48;;;;;;;13.60;8.65;;;17.70;99.90;;;;;;5050551;28;20033;-48
2021/09/02 11:41:23;;;;;;;13.45;7.75;;;17.70;99.90;;;;;;5043068;28;20017;-53
2021/09/02 11:43:51;;;;;;;11.18;7.03;;;17.60;99.90;;;;;;5049793;28;20017;-48
2021/09/02 11:46:18;;;;;;;11.52;7.53;;;17.50;99.90;;;;;;5047606;28;20024;-49
2021/09/02 11:48:48;;;;;;;9.70;7.40;;;17.50;99.90;;;;;;5049409;28;20479;-47
2021/09/02 11:51:30;;;;;;;13.80;7.55;;;17.50;99.90;;;;;;5047972;28;20055;-47
2021/09/02 11:54:22;;;;;;;11.38;6.95;;;17.50;99.90;;;;;;5042477;28;20154;-48
2021/09/02 11:56:49;;;;;;;12.75;7.70;;;17.60;99.90;;;;;;5043280;28;20507;-52
2021/09/02 11:59:14;;;;;;;9.93;7.75;;;17.70;99.90;;;;;;5048264;28;20398;-51
2021/09/02 12:01:44;;;;;;;9.32;7.30;;;17.80;99.90;;;;;;5050962;28;20025;-47
2021/09/02 12:04:21;;;;;;;12.88;7.20;;;17.70;99.90;;;;;;5044720;28;20109;-50
2021/09/02 12:06:48;;;;;;;11.60;7.55;;;17.80;99.90;;;;;;5035981;28;20018;-52
2021/09/02 12:09:18;;;;;;;10.68;7.40;;;17.90;99.90;;;;;;5041613;28;20105;-47
2021/09/02 12:11:44;;;;;;;9.95;7.38;;;17.90;99.90;;;;;;5039503;28;20013;-51
2021/09/02 12:14:19;;;;;;;11.05;7.38;;;18.00;99.90;;;;;;5040698;28;20021;-47
2021/09/02 12:16:46;;;;;;;10.20;7.00;;;18.10;99.90;;;;;;5050110;28;20035;-48
2021/09/02 12:19:12;;;;;;;11.32;7.40;;;18.10;99.90;;;;;;5026738;28;20029;-48
2021/09/02 12:21:38;;;;;;;11.68;7.38;;;18.20;99.90;;;;;;5050650;28;20074;-48
2021/09/02 12:24:10;;;;;;;9.70;6.40;;;18.30;99.90;;;;;;5044244;28;20096;-52
2021/09/02 12:26:59;;;;;;;9.35;6.78;;;18.20;99.90;;;;;;5049743;28;20028;-48
2021/09/02 12:29:25;;;;;;;17.08;7.03;;;18.10;99.90;;;;;;5038342;28;20036;-53
2021/09/02 12:31:53;;;;;;;12.05;7.18;;;18.10;99.90;;;;;;5048861;28;20021;-47
2021/09/02 12:34:18;;;;;;;11.85;6.22;;;18.10;99.90;;;;;;5047223;28;20029;-47
2021/09/02 12:36:45;;;;;;;8.65;6.32;;;18.10;99.90;;;;;;5045868;28;20036;-48